Time,TemperatureF,DewpointF,PressureIn,WindDirection,WindDirectionDegrees,WindSpeedMPH,WindSpeedGustMPH,Humidity,HourlyPrecipIn,Conditions,Clouds,dailyrainin,SoftwareType,DateUTC
2013-02-19 00:02:00,6.0,-8.0,-100.00,East,95,0.0,2.0,51,-99.99,,,-99.99,,2013-02-19 05:02:00,
2013-02-19 00:13:00,5.0,-7.0,-100.00,West,280,0.0,0.0,55,-99.99,,,-99.99,,2013-02-19 05:13:00,
2013-02-19 00:22:00,5.0,-7.0,-100.00,West,280,0.0,0.0,55,-99.99,,,-99.99,,2013-02-19 05:22:00,
2013-02-19 00:32:00,5.0,-8.0,-100.00,ESE,108,3.0,6.0,54,-99.99,,,-99.99,,2013-02-19 05:32:00,
2013-02-19 00:43:00,5.0,-9.0,-100.00,West,276,3.0,6.0,51,-99.99,,,-99.99,,2013-02-19 05:43:00,
2013-02-19 00:52:00,2.0,-7.0,-100.00,ESE,123,0.0,2.0,63,-99.99,,,-99.99,,2013-02-19 05:52:00,
2013-02-19 01:03:00,2.0,-7.0,-100.00,ESE,123,0.0,2.0,63,-99.99,,,-99.99,,2013-02-19 06:03:00,
2013-02-19 01:12:00,3.0,-7.0,-100.00,SW,215,0.0,2.0,61,-99.99,,,-99.99,,2013-02-19 06:12:00,
2013-02-19 01:22:00,4.0,-8.0,-100.00,East,88,0.0,2.0,56,-99.99,,,-99.99,,2013-02-19 06:22:00,
2013-02-19 01:32:00,2.0,-8.0,-100.00,NNE,18,0.0,2.0,64,-99.99,,,-99.99,,2013-02-19 06:32:00,
2013-02-19 01:42:00,2.0,-8.0,-100.00,NNE,18,0.0,2.0,64,-99.99,,,-99.99,,2013-02-19 06:42:00,
2013-02-19 01:52:00,2.0,-8.0,-100.00,NW,319,0.0,2.0,63,-99.99,,,-99.99,,2013-02-19 06:52:00,
2013-02-19 02:02:00,2.0,-7.0,-100.00,West,260,0.0,0.0,65,-99.99,,,-99.99,,2013-02-19 07:02:00,
2013-02-19 02:12:00,2.0,-7.0,-100.00,East,92,0.0,2.0,65,-99.99,,,-99.99,,2013-02-19 07:12:00,
2013-02-19 02:22:00,2.0,-7.0,-100.00,SSW,201,0.0,2.0,65,-99.99,,,-99.99,,2013-02-19 07:22:00,
2013-02-19 02:32:00,3.0,-7.0,-100.00,North,3,0.0,2.0,62,-99.99,,,-99.99,,2013-02-19 07:32:00,
2013-02-19 02:42:00,2.0,-7.0,-100.00,West,272,0.0,0.0,65,-99.99,,,-99.99,,2013-02-19 07:42:00,
2013-02-19 02:52:00,2.0,-6.0,-100.00,SE,144,0.0,0.0,67,-99.99,,,-99.99,,2013-02-19 07:52:00,
2013-02-19 03:02:00,2.0,-5.0,-100.00,ENE,60,0.0,2.0,70,-99.99,,,-99.99,,2013-02-19 08:02:00,
2013-02-19 03:11:00,2.0,-5.0,-100.00,SE,136,0.0,2.0,72,-99.99,,,-99.99,,2013-02-19 08:11:00,
2013-02-19 03:21:00,2.0,-5.0,-100.00,South,190,0.0,2.0,71,-99.99,,,-99.99,,2013-02-19 08:21:00,
2013-02-19 03:32:00,3.0,-4.0,-100.00,SE,138,0.0,2.0,72,-99.99,,,-99.99,,2013-02-19 08:32:00,
2013-02-19 03:42:00,3.0,-4.0,-100.00,SE,138,0.0,2.0,72,-99.99,,,-99.99,,2013-02-19 08:42:00,
2013-02-19 03:52:00,3.0,-4.0,-100.00,SSW,195,0.0,2.0,70,-99.99,,,-99.99,,2013-02-19 08:52:00,
2013-02-19 04:02:00,4.0,-4.0,-100.00,North,0,0.0,2.0,69,-99.99,,,-99.99,,2013-02-19 09:02:00,
2013-02-19 04:11:00,4.0,-4.0,-100.00,East,101,0.0,0.0,68,-99.99,,,-99.99,,2013-02-19 09:11:00,
2013-02-19 04:22:00,4.0,-3.0,-100.00,SE,138,0.0,0.0,72,-99.99,,,-99.99,,2013-02-19 09:22:00,
2013-02-19 04:32:00,4.0,-3.0,-100.00,SE,138,0.0,0.0,72,-99.99,,,-99.99,,2013-02-19 09:32:00,
2013-02-19 04:42:00,4.0,-3.0,-100.00,ENE,63,0.0,0.0,72,-99.99,,,-99.99,,2013-02-19 09:42:00,
2013-02-19 04:52:00,4.0,-3.0,-100.00,SSE,154,0.0,0.0,71,-99.99,,,-99.99,,2013-02-19 09:52:00,
2013-02-19 05:02:00,4.0,-3.0,-100.00,SSE,154,0.0,0.0,71,-99.99,,,-99.99,,2013-02-19 10:02:00,
2013-02-19 05:11:00,4.0,-3.0,-100.00,ENE,65,0.0,0.0,72,-99.99,,,-99.99,,2013-02-19 10:11:00,
2013-02-19 05:22:00,4.0,-3.0,-100.00,SW,222,0.0,0.0,71,-99.99,,,-99.99,,2013-02-19 10:22:00,
2013-02-19 05:32:00,4.0,-3.0,-100.00,SSE,148,0.0,2.0,71,-99.99,,,-99.99,,2013-02-19 10:32:00,
2013-02-19 05:42:00,4.0,-4.0,-100.00,NE,42,0.0,2.0,66,-99.99,,,-99.99,,2013-02-19 10:42:00,
2013-02-19 05:52:00,4.0,-4.0,-100.00,East,100,0.0,2.0,66,-99.99,,,-99.99,,2013-02-19 10:52:00,
2013-02-19 06:01:00,4.0,-4.0,-100.00,NNE,31,0.0,2.0,67,-99.99,,,-99.99,,2013-02-19 11:01:00,
2013-02-19 06:11:00,4.0,-4.0,-100.00,NNE,31,0.0,2.0,67,-99.99,,,-99.99,,2013-02-19 11:11:00,
2013-02-19 06:22:00,5.0,-4.0,-100.00,South,186,0.0,2.0,63,-99.99,,,-99.99,,2013-02-19 11:22:00,
2013-02-19 06:32:00,5.0,-4.0,-100.00,South,186,0.0,2.0,63,-99.99,,,-99.99,,2013-02-19 11:32:00,
2013-02-19 06:42:00,6.0,-4.0,-100.00,SW,220,0.0,2.0,63,-99.99,,,-99.99,,2013-02-19 11:42:00,
2013-02-19 06:52:00,6.0,-4.0,-100.00,ENE,57,0.0,2.0,61,-99.99,,,-99.99,,2013-02-19 11:52:00,
2013-02-19 07:02:00,6.0,-3.0,-100.00,SE,134,0.0,2.0,64,-99.99,,,-99.99,,2013-02-19 12:02:00,
2013-02-19 07:12:00,6.0,-3.0,-100.00,SW,236,0.0,2.0,65,-99.99,,,-99.99,,2013-02-19 12:12:00,
2013-02-19 07:22:00,6.0,-3.0,-100.00,SW,214,0.0,2.0,65,-99.99,,,-99.99,,2013-02-19 12:22:00,
2013-02-19 07:32:00,6.0,-3.0,-100.00,SSE,166,0.0,0.0,66,-99.99,,,-99.99,,2013-02-19 12:32:00,
2013-02-19 07:42:00,6.0,-2.0,-100.00,ESE,104,1.0,2.0,68,-99.99,,,-99.99,,2013-02-19 12:42:00,
2013-02-19 07:52:00,6.0,-3.0,-100.00,SSW,197,1.0,4.0,66,-99.99,,,-99.99,,2013-02-19 12:52:00,
2013-02-19 08:02:00,7.0,-2.0,-100.00,SSE,158,1.0,4.0,66,-99.99,,,-99.99,,2013-02-19 13:02:00,
2013-02-19 08:11:00,8.0,-3.0,-100.00,South,185,1.0,2.0,62,-99.99,,,-99.99,,2013-02-19 13:11:00,
2013-02-19 08:22:00,8.0,-3.0,-100.00,South,185,1.0,2.0,62,-99.99,,,-99.99,,2013-02-19 13:22:00,
2013-02-19 08:32:00,10.0,-3.0,-100.00,SE,127,0.0,2.0,55,-99.99,,,-99.99,,2013-02-19 13:32:00,
2013-02-19 08:42:00,10.0,-2.0,-100.00,ESE,112,1.0,2.0,56,-99.99,,,-99.99,,2013-02-19 13:42:00,
2013-02-19 08:52:00,12.0,-1.0,-100.00,South,182,0.0,2.0,57,-99.99,,,-99.99,,2013-02-19 13:52:00,
2013-02-19 09:02:00,13.0,-3.0,-100.00,South,185,0.0,2.0,46,-99.99,,,-99.99,,2013-02-19 14:02:00,
2013-02-19 09:12:00,13.0,-2.0,-100.00,East,80,1.0,2.0,49,-99.99,,,-99.99,,2013-02-19 14:12:00,
2013-02-19 09:22:00,13.0,-1.0,-100.00,ENE,72,1.0,4.0,51,-99.99,,,-99.99,,2013-02-19 14:22:00,
2013-02-19 09:33:00,14.0,-1.0,-100.00,East,87,1.0,4.0,51,-99.99,,,-99.99,,2013-02-19 14:33:00,
2013-02-19 09:42:00,14.0,-2.0,-100.00,East,88,1.0,4.0,46,-99.99,,,-99.99,,2013-02-19 14:42:00,
2013-02-19 09:52:00,14.0,-2.0,-100.00,East,88,1.0,4.0,46,-99.99,,,-99.99,,2013-02-19 14:52:00,
2013-02-19 10:02:00,15.0,-3.0,-100.00,East,101,1.0,2.0,43,-99.99,,,-99.99,,2013-02-19 15:02:00,
2013-02-19 10:11:00,16.0,-2.0,-100.00,SE,131,1.0,4.0,42,-99.99,,,-99.99,,2013-02-19 15:11:00,
2013-02-19 10:21:00,18.0,-1.0,-100.00,SE,137,1.0,2.0,42,-99.99,,,-99.99,,2013-02-19 15:21:00,
2013-02-19 10:32:00,20.0,0.0,-100.00,SE,133,2.0,6.0,39,-99.99,,,-99.99,,2013-02-19 15:32:00,
2013-02-19 10:42:00,20.0,-1.0,-100.00,SSE,163,3.0,6.0,38,-99.99,,,-99.99,,2013-02-19 15:42:00,
2013-02-19 10:52:00,21.0,-2.0,-100.00,SSW,199,5.0,10.0,35,-99.99,,,-99.99,,2013-02-19 15:52:00,
2013-02-19 11:02:00,22.0,-3.0,-100.00,SSE,161,7.0,11.0,32,-99.99,,,-99.99,,2013-02-19 16:02:00,
2013-02-19 11:11:00,24.0,-3.0,-100.00,South,175,5.0,10.0,28,-99.99,,,-99.99,,2013-02-19 16:11:00,
2013-02-19 11:22:00,24.0,-3.0,-100.00,South,175,5.0,10.0,28,-99.99,,,-99.99,,2013-02-19 16:22:00,
2013-02-19 11:32:00,24.0,-3.0,-100.00,South,175,5.0,10.0,28,-99.99,,,-99.99,,2013-02-19 16:32:00,
2013-02-19 11:42:00,24.0,-3.0,-100.00,South,175,5.0,10.0,28,-99.99,,,-99.99,,2013-02-19 16:42:00,
2013-02-19 11:52:00,27.0,-5.0,-100.00,SSE,160,5.0,10.0,23,-99.99,,,-99.99,,2013-02-19 16:52:00,
2013-02-19 12:01:00,28.0,-4.0,-100.00,SW,231,5.0,8.0,24,-99.99,,,-99.99,,2013-02-19 17:01:00,
2013-02-19 12:11:00,29.0,-5.0,-100.00,SSW,213,6.0,11.0,21,-99.99,,,-99.99,,2013-02-19 17:11:00,
2013-02-19 12:21:00,30.0,-3.0,-100.00,SW,215,4.0,8.0,23,-99.99,,,-99.99,,2013-02-19 17:21:00,
2013-02-19 12:32:00,30.0,-3.0,-100.00,South,187,5.0,11.0,23,-99.99,,,-99.99,,2013-02-19 17:32:00,
2013-02-19 12:42:00,30.0,-2.0,-100.00,SSW,198,4.0,10.0,24,-99.99,,,-99.99,,2013-02-19 17:42:00,
2013-02-19 12:52:00,30.0,-2.0,-100.00,SSW,193,5.0,8.0,24,-99.99,,,-99.99,,2013-02-19 17:52:00,
2013-02-19 13:02:00,31.0,-1.0,-100.00,SSW,203,7.0,11.0,24,-99.99,,,-99.99,,2013-02-19 18:02:00,
2013-02-19 13:11:00,31.0,-1.0,-100.00,SSW,203,7.0,11.0,24,-99.99,,,-99.99,,2013-02-19 18:11:00,
2013-02-19 13:21:00,31.0,-1.0,-100.00,SSE,168,7.0,13.0,24,-99.99,,,-99.99,,2013-02-19 18:21:00,
2013-02-19 13:32:00,32.0,0.0,-100.00,South,175,8.0,13.0,24,-99.99,,,-99.99,,2013-02-19 18:32:00,
2013-02-19 13:42:00,32.0,2.0,-100.00,SSW,201,7.0,11.0,26,-99.99,,,-99.99,,2013-02-19 18:42:00,
2013-02-19 13:52:00,32.0,1.0,-100.00,South,172,8.0,11.0,26,-99.99,,,-99.99,,2013-02-19 18:52:00,
2013-02-19 14:01:00,33.0,2.0,-100.00,SSW,197,7.0,11.0,25,-99.99,,,-99.99,,2013-02-19 19:01:00,
2013-02-19 14:11:00,33.0,2.0,-100.00,SSW,197,7.0,11.0,25,-99.99,,,-99.99,,2013-02-19 19:11:00,
2013-02-19 14:21:00,33.0,3.0,-100.00,SSW,192,6.0,10.0,26,-99.99,,,-99.99,,2013-02-19 19:21:00,
2013-02-19 14:32:00,33.0,3.0,-100.00,SSW,192,6.0,10.0,26,-99.99,,,-99.99,,2013-02-19 19:32:00,
2013-02-19 14:42:00,34.0,4.0,-100.00,SSW,209,5.0,8.0,27,-99.99,,,-99.99,,2013-02-19 19:42:00,
2013-02-19 14:52:00,35.0,5.0,-100.00,South,191,3.0,8.0,28,-99.99,,,-99.99,,2013-02-19 19:52:00,
2013-02-19 15:02:00,35.0,6.0,-100.00,SSW,202,5.0,10.0,28,-99.99,,,-99.99,,2013-02-19 20:02:00,
2013-02-19 15:12:00,36.0,6.0,-100.00,South,183,4.0,8.0,28,-99.99,,,-99.99,,2013-02-19 20:12:00,
2013-02-19 15:22:00,36.0,7.0,-100.00,South,183,5.0,8.0,29,-99.99,,,-99.99,,2013-02-19 20:22:00,
2013-02-19 15:32:00,36.0,9.0,-100.00,South,185,4.0,8.0,31,-99.99,,,-99.99,,2013-02-19 20:32:00,
2013-02-19 15:42:00,37.0,10.0,-100.00,SSW,196,4.0,10.0,32,-99.99,,,-99.99,,2013-02-19 20:42:00,
2013-02-19 15:52:00,37.0,10.0,-100.00,SSW,196,4.0,10.0,32,-99.99,,,-99.99,,2013-02-19 20:52:00,
2013-02-19 16:02:00,38.0,12.0,-100.00,SE,133,6.0,13.0,34,-99.99,,,-99.99,,2013-02-19 21:02:00,
2013-02-19 16:11:00,38.0,12.0,-100.00,SE,133,6.0,13.0,34,-99.99,,,-99.99,,2013-02-19 21:11:00,
2013-02-19 16:21:00,38.0,14.0,-100.00,SW,220,6.0,11.0,36,-99.99,,,-99.99,,2013-02-19 21:21:00,
2013-02-19 16:32:00,38.0,15.0,-100.00,South,180,5.0,10.0,37,-99.99,,,-99.99,,2013-02-19 21:32:00,
2013-02-19 16:42:00,38.0,15.0,-100.00,South,180,5.0,10.0,37,-99.99,,,-99.99,,2013-02-19 21:42:00,
2013-02-19 16:51:00,38.0,15.0,-100.00,South,171,5.0,13.0,38,-99.99,,,-99.99,,2013-02-19 21:51:00,
2013-02-19 17:02:00,38.0,15.0,-100.00,SSW,202,6.0,11.0,38,-99.99,,,-99.99,,2013-02-19 22:02:00,
2013-02-19 17:11:00,38.0,17.0,-100.00,South,177,8.0,15.0,41,-99.99,,,-99.99,,2013-02-19 22:11:00,
2013-02-19 17:22:00,38.0,17.0,-100.00,South,177,8.0,15.0,41,-99.99,,,-99.99,,2013-02-19 22:22:00,
2013-02-19 17:32:00,38.0,17.0,-100.00,South,182,6.0,13.0,42,-99.99,,,-99.99,,2013-02-19 22:32:00,
2013-02-19 17:42:00,38.0,18.0,-100.00,SSE,167,7.0,17.0,43,-99.99,,,-99.99,,2013-02-19 22:42:00,
2013-02-19 17:52:00,38.0,18.0,-100.00,SSW,210,4.0,8.0,44,-99.99,,,-99.99,,2013-02-19 22:52:00,
2013-02-19 18:01:00,38.0,19.0,-100.00,South,172,5.0,11.0,45,-99.99,,,-99.99,,2013-02-19 23:01:00,
2013-02-19 18:11:00,37.0,19.0,-100.00,South,181,7.0,13.0,47,-99.99,,,-99.99,,2013-02-19 23:11:00,
2013-02-19 18:21:00,37.0,21.0,-100.00,SSE,163,7.0,11.0,51,-99.99,,,-99.99,,2013-02-19 23:21:00,
2013-02-19 18:32:00,37.0,23.0,-100.00,South,179,9.0,15.0,56,-99.99,,,-99.99,,2013-02-19 23:32:00,
2013-02-19 18:42:00,36.0,24.0,-100.00,SE,146,7.0,15.0,60,-99.99,,,-99.99,,2013-02-19 23:42:00,
2013-02-19 18:52:00,36.0,25.0,-100.00,South,170,7.0,17.0,62,-99.99,,,-99.99,,2013-02-19 23:52:00,
2013-02-19 19:01:00,36.0,25.0,-100.00,South,183,9.0,20.0,63,-99.99,,,-99.99,,2013-02-20 00:01:00,
2013-02-19 19:11:00,36.0,25.0,-100.00,South,183,9.0,20.0,63,-99.99,,,-99.99,,2013-02-20 00:11:00,
2013-02-19 19:21:00,36.0,25.0,-100.00,South,185,8.0,17.0,64,-99.99,,,-99.99,,2013-02-20 00:21:00,
2013-02-19 19:32:00,36.0,25.0,-100.00,SSW,199,7.0,13.0,64,-99.99,,,-99.99,,2013-02-20 00:32:00,
2013-02-19 19:42:00,36.0,26.0,-100.00,SE,139,7.0,11.0,66,-99.99,,,-99.99,,2013-02-20 00:42:00,
2013-02-19 19:52:00,36.0,27.0,-100.00,South,184,7.0,13.0,68,-99.99,,,-99.99,,2013-02-20 00:52:00,
2013-02-19 20:02:00,36.0,27.0,-100.00,SSE,163,5.0,8.0,71,-99.99,,,-99.99,,2013-02-20 01:02:00,
2013-02-19 20:11:00,36.0,27.0,-100.00,SSE,163,5.0,8.0,71,-99.99,,,-99.99,,2013-02-20 01:11:00,
2013-02-19 20:22:00,35.0,29.0,-100.00,South,172,8.0,13.0,77,-99.99,,,-99.99,,2013-02-20 01:22:00,
2013-02-19 20:32:00,35.0,29.0,-100.00,WSW,244,3.0,10.0,78,-99.99,,,-99.99,,2013-02-20 01:32:00,
2013-02-19 20:42:00,35.0,29.0,-100.00,WSW,244,3.0,10.0,78,-99.99,,,-99.99,,2013-02-20 01:42:00,
2013-02-19 20:52:00,35.0,29.0,-100.00,South,177,4.0,11.0,79,-99.99,,,-99.99,,2013-02-20 01:52:00,
2013-02-19 21:02:00,34.0,30.0,-100.00,South,189,3.0,6.0,87,-99.99,,,-99.99,,2013-02-20 02:02:00,
2013-02-19 21:11:00,33.0,31.0,-100.00,SE,131,1.0,4.0,91,-99.99,,,-99.99,,2013-02-20 02:11:00,
2013-02-19 21:22:00,32.0,31.0,-100.00,SSW,202,0.0,2.0,93,-99.99,,,-99.99,,2013-02-20 02:22:00,
2013-02-19 21:32:00,32.0,31.0,-100.00,SW,219,0.0,2.0,94,-99.99,,,-99.99,,2013-02-20 02:32:00,
2013-02-19 21:42:00,31.0,30.0,-100.00,West,272,0.0,2.0,95,-99.99,,,-99.99,,2013-02-20 02:42:00,
2013-02-19 21:52:00,31.0,30.0,-100.00,West,272,0.0,2.0,95,-99.99,,,-99.99,,2013-02-20 02:52:00,
2013-02-19 22:02:00,31.0,30.0,-100.00,West,272,0.0,2.0,95,-99.99,,,-99.99,,2013-02-20 03:02:00,
2013-02-19 22:12:00,31.0,30.0,-100.00,SSE,161,0.0,0.0,96,-99.99,,,-99.99,,2013-02-20 03:12:00,
2013-02-19 22:22:00,31.0,30.0,-100.00,WSW,242,0.0,0.0,96,-99.99,,,-99.99,,2013-02-20 03:22:00,
2013-02-19 22:32:00,31.0,30.0,-100.00,SW,226,0.0,0.0,96,-99.99,,,-99.99,,2013-02-20 03:32:00,
2013-02-19 22:42:00,31.0,31.0,-100.00,West,261,0.0,0.0,97,-99.99,,,-99.99,,2013-02-20 03:42:00,
2013-02-19 22:52:00,31.0,31.0,-100.00,West,261,0.0,0.0,97,-99.99,,,-99.99,,2013-02-20 03:52:00,
2013-02-19 23:01:00,31.0,30.0,-100.00,West,276,0.0,0.0,97,-99.99,,,-99.99,,2013-02-20 04:01:00,
2013-02-19 23:11:00,31.0,30.0,-100.00,SW,225,0.0,2.0,98,-99.99,,,-99.99,,2013-02-20 04:11:00,
2013-02-19 23:21:00,31.0,30.0,-100.00,WNW,299,0.0,2.0,98,-99.99,,,-99.99,,2013-02-20 04:21:00,
2013-02-19 23:32:00,31.0,30.0,-100.00,WNW,299,0.0,2.0,98,-99.99,,,-99.99,,2013-02-20 04:32:00,
2013-02-19 23:42:00,31.0,31.0,-100.00,NW,310,0.0,2.0,99,-99.99,,,-99.99,,2013-02-20 04:42:00,
2013-02-19 23:52:00,31.0,31.0,-100.00,NW,310,0.0,2.0,99,-99.99,,,-99.99,,2013-02-20 04:52:00,